Time;durP1;ratioP1;P1;durP2;ratioP2;P2;SDS_P1;SDS_P2;PMS_P1;PMS_P2;Temp;Humidity;BMP_temperature;BMP_pressure;BME280_temperature;BME280_humidity;BME280_pressure;Samples;Min_cycle;Max_cycle;Signal;HPM_P1;HPM_P2
2023/03/28 00:00:56;;;;;;;2.17;0.87;;;3.80;99.90;;;;;;6211382;23;20180;-77
2023/03/28 00:03:24;;;;;;;3.47;1.17;;;3.80;99.90;;;;;;6211101;23;20198;-78
2023/03/28 00:05:54;;;;;;;4.33;0.97;;;3.70;99.90;;;;;;6210469;23;20265;-79
2023/03/28 00:08:20;;;;;;;7.73;1.67;;;3.70;99.90;;;;;;6210994;23;20200;-81
2023/03/28 00:10:47;;;;;;;5.33;1.37;;;3.60;99.90;;;;;;6211421;23;20249;-81
2023/03/28 00:13:18;;;;;;;4.03;0.90;;;3.60;99.90;;;;;;6210954;23;20170;-80
2023/03/28 00:15:45;;;;;;;6.97;1.37;;;3.50;99.90;;;;;;6211463;23;20240;-81
2023/03/28 00:18:13;;;;;;;5.47;2.40;;;3.50;99.90;;;;;;6211280;23;20170;-80
2023/03/28 00:20:42;;;;;;;5.60;1.10;;;3.50;99.90;;;;;;6212654;23;20177;-82
2023/03/28 00:23:10;;;;;;;3.67;1.30;;;3.50;99.90;;;;;;6213049;23;20228;-80
2023/03/28 00:25:40;;;;;;;5.63;1.17;;;3.40;99.90;;;;;;6213082;23;20427;-80
2023/03/28 00:28:07;;;;;;;2.63;1.00;;;3.40;99.90;;;;;;6212020;23;20555;-80
2023/03/28 00:30:36;;;;;;;4.87;1.60;;;3.40;99.90;;;;;;6213338;23;20751;-79
2023/03/28 00:33:03;;;;;;;6.40;1.37;;;3.40;99.90;;;;;;6212358;23;20401;-77
2023/03/28 00:35:31;;;;;;;5.93;1.13;;;3.40;99.90;;;;;;6211216;23;20170;-81
2023/03/28 00:37:58;;;;;;;3.23;1.17;;;3.30;99.90;;;;;;6212889;23;20257;-79
2023/03/28 00:40:25;;;;;;;3.97;1.13;;;3.30;99.90;;;;;;6232740;22;20565;-78
2023/03/28 00:42:52;;;;;;;3.53;0.90;;;3.30;99.90;;;;;;6276868;22;20168;-79
2023/03/28 00:45:20;;;;;;;5.10;1.37;;;3.30;99.90;;;;;;6276478;22;20200;-79
2023/03/28 00:47:53;;;;;;;4.93;1.23;;;3.30;99.90;;;;;;6276216;22;20196;-79
2023/03/28 00:50:26;;;;;;;2.10;0.77;;;3.20;99.90;;;;;;6276699;22;20262;-81
2023/03/28 00:52:57;;;;;;;5.10;1.83;;;3.20;99.90;;;;;;6276588;22;20535;-81
2023/03/28 00:55:29;;;;;;;5.20;0.90;;;3.20;99.90;;;;;;6276054;22;20263;-78
2023/03/28 00:57:58;;;;;;;4.67;1.00;;;3.10;99.90;;;;;;6276009;22;20192;-78
2023/03/28 01:00:25;;;;;;;4.20;1.10;;;3.10;99.90;;;;;;6276612;22;20479;-79
2023/03/28 01:02:57;;;;;;;3.43;1.20;;;3.10;99.90;;;;;;6275494;22;20217;-77
2023/03/28 01:05:26;;;;;;;2.83;1.00;;;3.10;99.90;;;;;;6276728;22;20167;-77
2023/03/28 01:07:58;;;;;;;5.43;1.10;;;3.10;99.90;;;;;;6275937;22;20235;-79
2023/03/28 01:10:25;;;;;;;4.67;0.90;;;3.10;99.90;;;;;;6275094;22;20167;-78
2023/03/28 01:12:56;;;;;;;1.77;1.00;;;3.10;99.90;;;;;;6276098;22;20248;-77
2023/03/28 01:15:23;;;;;;;3.60;1.30;;;3.00;99.90;;;;;;6275634;22;20268;-77
2023/03/28 01:17:50;;;;;;;6.70;1.33;;;3.00;99.90;;;;;;6276128;22;20267;-77
2023/03/28 01:20:53;;;;;;;4.83;1.40;;;2.90;99.90;;;;;;6275874;22;20176;-77
2023/03/28 01:23:52;;;;;;;2.83;0.80;;;2.90;99.90;;;;;;6264970;22;20244;-78
2023/03/28 01:26:47;;;;;;;5.80;1.03;;;2.80;99.90;;;;;;6276383;22;20165;-77
2023/03/28 01:30:00;;;;;;;2.50;0.80;;;2.80;99.90;;;;;;6275352;22;20250;-77
2023/03/28 01:33:02;;;;;;;3.63;1.43;;;2.70;99.90;;;;;;6275614;22;20212;-78
2023/03/28 01:36:02;;;;;;;3.57;2.30;;;2.70;99.90;;;;;;6275868;22;20174;-78
2023/03/28 01:38:38;;;;;;;2.60;0.93;;;2.70;99.90;;;;;;6265438;22;20172;-77
2023/03/28 01:41:12;;;;;;;5.13;1.73;;;2.70;99.90;;;;;;6274971;22;20561;-78
2023/03/28 01:43:47;;;;;;;4.87;1.33;;;2.70;99.90;;;;;;6275006;22;20185;-78
2023/03/28 01:46:17;;;;;;;6.07;2.60;;;2.70;99.90;;;;;;6275848;22;20167;-79
2023/03/28 01:48:57;;;;;;;4.30;0.87;;;2.70;99.90;;;;;;6275954;22;20200;-77
2023/03/28 01:51:35;;;;;;;2.93;1.27;;;2.60;99.90;;;;;;6274787;22;20168;-77
2023/03/28 01:54:13;;;;;;;4.50;1.10;;;2.60;99.90;;;;;;6275884;22;20192;-78
2023/03/28 01:56:47;;;;;;;4.60;1.03;;;2.50;99.90;;;;;;6275897;22;20213;-78
2023/03/28 01:59:20;;;;;;;6.13;1.47;;;2.50;99.90;;;;;;6275220;22;20156;-79
2023/03/28 02:01:54;;;;;;;2.57;1.00;;;2.50;99.90;;;;;;6275296;22;20171;-78
2023/03/28 02:04:25;;;;;;;3.43;1.00;;;2.40;99.90;;;;;;6275950;22;20160;-78
2023/03/28 02:06:55;;;;;;;5.50;1.33;;;2.40;99.90;;;;;;6274636;22;20161;-77
2023/03/28 02:09:26;;;;;;;5.63;1.07;;;2.30;99.90;;;;;;6275549;22;20188;-77
2023/03/28 02:11:58;;;;;;;2.30;0.93;;;2.30;99.90;;;;;;6275362;22;20165;-77
2023/03/28 02:14:30;;;;;;;4.13;1.20;;;2.30;99.90;;;;;;6275207;22;20193;-78
2023/03/28 02:17:03;;;;;;;2.37;0.90;;;2.30;99.90;;;;;;6276106;22;20169;-77
2023/03/28 02:19:33;;;;;;;3.40;1.00;;;2.20;99.90;;;;;;6274728;22;20180;-78
2023/03/28 02:22:09;;;;;;;6.90;1.17;;;2.20;99.90;;;;;;6275298;22;20165;-77
2023/03/28 02:24:38;;;;;;;4.03;1.00;;;2.20;99.90;;;;;;6275240;22;20216;-78
2023/03/28 02:27:07;;;;;;;5.37;1.50;;;2.10;99.90;;;;;;6274541;22;20196;-76
2023/03/28 02:29:35;;;;;;;2.77;1.00;;;2.10;99.90;;;;;;6275190;22;20184;-78
2023/03/28 02:32:02;;;;;;;3.07;0.90;;;2.10;99.90;;;;;;6273979;22;20230;-78
2023/03/28 02:34:29;;;;;;;4.00;1.10;;;2.00;99.90;;;;;;6274258;22;20235;-77
2023/03/28 02:37:06;;;;;;;5.80;1.20;;;2.00;99.90;;;;;;6275031;22;20347;-79
2023/03/28 02:39:47;;;;;;;1.50;0.77;;;2.00;99.90;;;;;;6275260;22;20219;-75
2023/03/28 02:42:40;;;;;;;3.67;1.00;;;2.00;99.90;;;;;;6273788;22;20240;-76
2023/03/28 02:45:27;;;;;;;3.53;1.13;;;2.00;99.90;;;;;;6275253;22;20240;-76
2023/03/28 02:48:09;;;;;;;5.20;1.97;;;2.00;99.90;;;;;;6274117;22;20242;-78
2023/03/28 02:50:43;;;;;;;4.23;0.97;;;2.00;99.90;;;;;;6274750;22;20335;-78
2023/03/28 02:53:14;;;;;;;4.80;1.47;;;2.00;99.90;;;;;;6274587;22;20477;-78
2023/03/28 02:55:53;;;;;;;2.80;1.60;;;2.00;99.90;;;;;;6274871;22;20515;-77
2023/03/28 02:58:26;;;;;;;3.00;1.50;;;2.00;99.90;;;;;;6274659;22;20448;-77
2023/03/28 03:00:53;;;;;;;4.23;1.87;;;2.00;99.90;;;;;;6274470;22;20351;-79
2023/03/28 03:03:20;;;;;;;4.40;1.70;;;2.00;99.90;;;;;;6273831;22;20562;-78
2023/03/28 03:05:47;;;;;;;2.23;1.10;;;2.10;99.90;;;;;;6274891;22;20453;-77
2023/03/28 03:08:15;;;;;;;3.67;1.10;;;2.00;99.90;;;;;;6273349;22;20656;-78
2023/03/28 03:10:43;;;;;;;3.33;1.20;;;2.00;99.90;;;;;;6275683;22;20172;-77
2023/03/28 03:13:10;;;;;;;2.63;1.03;;;2.10;99.90;;;;;;6274500;22;20203;-77
2023/03/28 03:15:37;;;;;;;3.67;1.10;;;2.00;99.90;;;;;;6274446;22;20179;-76
2023/03/28 03:18:04;;;;;;;4.00;1.40;;;2.00;99.90;;;;;;6274589;22;20577;-77
2023/03/28 03:20:32;;;;;;;2.07;0.93;;;2.00;99.90;;;;;;6274215;22;20165;-77
2023/03/28 03:22:59;;;;;;;3.67;1.30;;;2.00;99.90;;;;;;6273861;22;20482;-77
2023/03/28 03:25:27;;;;;;;3.60;1.33;;;2.00;99.90;;;;;;6274503;22;20545;-77
2023/03/28 03:27:55;;;;;;;3.33;1.10;;;2.00;99.90;;;;;;6274290;22;20725;-78
2023/03/28 03:30:22;;;;;;;2.40;1.00;;;2.00;99.90;;;;;;6273931;22;20553;-78
2023/03/28 03:32:49;;;;;;;4.83;1.30;;;2.00;99.90;;;;;;6274885;22;20252;-77
2023/03/28 03:35:16;;;;;;;1.37;1.00;;;2.00;99.90;;;;;;6274962;22;20219;-76
2023/03/28 03:37:43;;;;;;;1.67;1.00;;;2.10;99.90;;;;;;6274208;22;20199;-77
2023/03/28 03:40:10;;;;;;;6.20;1.13;;;2.00;99.90;;;;;;6275232;22;20327;-77
2023/03/28 03:42:37;;;;;;;4.90;1.30;;;2.00;99.90;;;;;;6274627;22;20183;-77
2023/03/28 03:45:07;;;;;;;6.27;1.53;;;2.00;99.90;;;;;;6273988;22;20196;-77
2023/03/28 03:47:34;;;;;;;3.73;1.37;;;2.00;99.90;;;;;;6274979;22;20215;-77
2023/03/28 03:50:01;;;;;;;5.00;1.33;;;2.00;99.90;;;;;;6275076;22;20231;-77
2023/03/28 03:52:28;;;;;;;4.30;2.17;;;2.00;99.90;;;;;;6273704;22;20238;-77
2023/03/28 03:54:55;;;;;;;4.00;1.20;;;1.90;99.90;;;;;;6277178;22;20275;-77
2023/03/28 03:57:22;;;;;;;6.00;1.17;;;1.90;99.90;;;;;;6276461;22;20173;-76
2023/03/28 03:59:48;;;;;;;3.50;1.70;;;1.90;99.90;;;;;;6276423;22;20240;-77
2023/03/28 04:02:17;;;;;;;4.67;1.60;;;1.90;99.90;;;;;;6276857;22;20165;-78
2023/03/28 04:04:44;;;;;;;5.07;1.57;;;1.80;99.90;;;;;;6276105;22;20247;-77
2023/03/28 04:07:11;;;;;;;3.93;1.83;;;1.80;99.90;;;;;;6276985;22;20255;-77
2023/03/28 04:09:38;;;;;;;5.77;1.80;;;1.80;99.90;;;;;;6276374;22;20189;-77
2023/03/28 04:12:06;;;;;;;4.43;1.87;;;1.80;99.90;;;;;;6275480;22;20248;-78
2023/03/28 04:14:33;;;;;;;3.20;1.50;;;1.70;99.90;;;;;;6277060;22;20667;-77
2023/03/28 04:17:00;;;;;;;6.43;1.40;;;1.70;99.90;;;;;;6276709;22;20243;-78
2023/03/28 04:19:28;;;;;;;2.20;1.10;;;1.70;99.90;;;;;;6275874;22;20165;-77
2023/03/28 04:21:56;;;;;;;3.43;1.40;;;1.70;99.90;;;;;;6276325;22;20247;-77
2023/03/28 04:24:24;;;;;;;4.10;1.50;;;1.70;99.90;;;;;;6276289;22;20485;-78
2023/03/28 04:26:54;;;;;;;4.37;1.40;;;1.70;99.90;;;;;;6275287;22;20546;-76
2023/03/28 04:29:24;;;;;;;4.37;1.80;;;1.60;99.90;;;;;;6275918;22;20188;-76
2023/03/28 04:31:54;;;;;;;2.20;1.50;;;1.60;99.90;;;;;;6276241;22;20573;-77
2023/03/28 04:34:24;;;;;;;4.30;1.70;;;1.60;99.90;;;;;;6274912;22;20514;-77
2023/03/28 04:36:55;;;;;;;5.90;1.77;;;1.60;99.90;;;;;;6276176;22;20173;-76
2023/03/28 04:39:22;;;;;;;5.83;2.07;;;1.50;99.90;;;;;;6275807;22;20607;-77
2023/03/28 04:41:54;;;;;;;8.27;2.00;;;1.50;99.90;;;;;;6276006;22;20169;-76
2023/03/28 04:44:21;;;;;;;2.70;1.90;;;1.60;99.90;;;;;;6276257;22;20584;-77
2023/03/28 04:46:49;;;;;;;7.93;2.13;;;1.50;99.90;;;;;;6275217;22;20192;-77
2023/03/28 04:49:16;;;;;;;4.60;1.60;;;1.50;99.90;;;;;;6275807;22;20452;-76
2023/03/28 04:51:43;;;;;;;6.73;1.87;;;1.50;99.90;;;;;;6276682;22;20197;-76
2023/03/28 04:54:12;;;;;;;7.77;2.20;;;1.50;99.90;;;;;;6275429;22;20224;-77
2023/03/28 04:56:39;;;;;;;4.43;2.07;;;1.50;99.90;;;;;;6275420;22;20439;-77
2023/03/28 04:59:07;;;;;;;3.53;1.93;;;1.50;99.90;;;;;;6276103;22;20562;-77
2023/03/28 05:01:34;;;;;;;4.10;2.13;;;1.50;99.90;;;;;;6274882;22;20203;-78
2023/03/28 05:04:01;;;;;;;3.50;2.10;;;1.50;99.90;;;;;;6276340;22;20188;-78
2023/03/28 05:06:28;;;;;;;6.23;2.10;;;1.50;99.90;;;;;;6275456;22;20171;-76
2023/03/28 05:08:55;;;;;;;7.27;1.80;;;1.50;99.90;;;;;;6275174;22;20219;-76
2023/03/28 05:11:23;;;;;;;6.57;2.03;;;1.50;99.90;;;;;;6276708;22;20252;-76
2023/03/28 05:13:50;;;;;;;4.57;1.90;;;1.50;99.90;;;;;;6276156;22;20620;-77
2023/03/28 05:16:17;;;;;;;4.50;1.90;;;1.50;99.90;;;;;;6275015;22;20626;-76
2023/03/28 05:18:44;;;;;;;4.90;2.00;;;1.40;99.90;;;;;;6276433;22;20171;-78
2023/03/28 05:21:11;;;;;;;6.53;2.70;;;1.40;99.90;;;;;;6275616;22;20176;-76
2023/03/28 05:23:38;;;;;;;6.90;1.83;;;1.40;99.90;;;;;;6275664;22;20168;-77
2023/03/28 05:26:05;;;;;;;2.93;1.73;;;1.40;99.90;;;;;;6275613;22;20196;-76
2023/03/28 05:28:34;;;;;;;3.60;1.90;;;1.40;99.90;;;;;;6276012;22;20252;-76
2023/03/28 05:31:01;;;;;;;5.47;2.40;;;1.40;99.90;;;;;;6275436;22;20181;-78
2023/03/28 05:33:28;;;;;;;8.47;2.50;;;1.40;99.90;;;;;;6275324;22;20231;-78
2023/03/28 05:35:55;;;;;;;7.23;2.20;;;1.40;99.90;;;;;;6275658;22;20165;-78
2023/03/28 05:38:22;;;;;;;6.87;2.37;;;1.40;99.90;;;;;;6275959;22;20196;-78
2023/03/28 05:40:49;;;;;;;7.77;2.43;;;1.40;99.90;;;;;;6276331;22;20181;-77
2023/03/28 05:43:16;;;;;;;5.97;2.47;;;1.40;99.90;;;;;;6274797;22;20742;-77
2023/03/28 05:45:46;;;;;;;4.93;2.23;;;1.50;99.90;;;;;;6276213;22;20239;-76
2023/03/28 05:48:13;;;;;;;5.47;2.47;;;1.50;99.90;;;;;;6276005;22;20191;-76
2023/03/28 05:50:40;;;;;;;6.30;2.73;;;1.50;99.90;;;;;;6275105;22;20601;-76
2023/03/28 05:53:07;;;;;;;3.60;2.10;;;1.60;99.90;;;;;;6276078;22;20641;-77
2023/03/28 05:55:34;;;;;;;5.73;2.90;;;1.60;99.90;;;;;;6275542;22;20204;-77
2023/03/28 05:58:01;;;;;;;8.23;2.80;;;1.70;99.90;;;;;;6275159;22;20250;-76
2023/03/28 06:00:28;;;;;;;5.03;3.13;;;1.70;99.90;;;;;;6275269;22;20235;-77
2023/03/28 06:02:56;;;;;;;5.97;3.10;;;1.80;99.90;;;;;;6276315;22;20200;-77
2023/03/28 06:05:23;;;;;;;7.13;2.47;;;1.90;99.90;;;;;;6274619;22;20440;-77
2023/03/28 06:07:51;;;;;;;5.27;2.80;;;1.90;99.90;;;;;;6275480;22;20252;-77
2023/03/28 06:10:18;;;;;;;7.33;2.60;;;2.00;99.90;;;;;;6274176;22;20184;-78
2023/03/28 06:12:45;;;;;;;6.30;2.37;;;2.10;99.90;;;;;;6275487;22;20256;-79
2023/03/28 06:15:12;;;;;;;6.10;2.53;;;2.10;99.90;;;;;;6276404;22;20646;-81
2023/03/28 06:17:40;;;;;;;10.23;3.23;;;2.20;99.90;;;;;;6276237;22;20199;-81
2023/03/28 06:20:10;;;;;;;6.57;2.73;;;2.30;99.90;;;;;;6276005;22;20169;-80
2023/03/28 06:22:37;;;;;;;6.63;2.70;;;2.40;99.90;;;;;;6275396;22;20215;-79
2023/03/28 06:25:05;;;;;;;9.20;3.30;;;2.50;99.90;;;;;;6275739;22;20200;-77
2023/03/28 06:27:32;;;;;;;49.33;8.77;;;2.60;99.90;;;;;;6275589;22;20251;-77
2023/03/28 06:29:59;;;;;;;36.73;6.77;;;2.70;99.90;;;;;;6275330;22;20278;-76
2023/03/28 06:32:26;;;;;;;23.07;4.40;;;2.90;99.90;;;;;;6274677;22;20609;-77
2023/03/28 06:34:53;;;;;;;3.90;2.07;;;2.90;99.90;;;;;;6275349;22;20283;-78
2023/03/28 06:37:22;;;;;;;13.80;3.93;;;3.00;99.90;;;;;;6275596;22;20172;-81
2023/03/28 06:39:51;;;;;;;139.67;17.33;;;3.10;99.90;;;;;;6274859;22;20167;-82
2023/03/28 06:42:18;;;;;;;24.80;4.60;;;3.20;99.90;;;;;;6276014;22;20169;-79
2023/03/28 06:44:45;;;;;;;9.57;2.40;;;3.30;99.90;;;;;;6275596;22;20255;-78
2023/03/28 06:47:12;;;;;;;6.40;3.03;;;3.30;99.90;;;;;;6274048;22;20195;-79
2023/03/28 06:49:39;;;;;;;5.97;2.67;;;3.40;99.90;;;;;;6275662;22;20268;-83
2023/03/28 06:52:06;;;;;;;9.30;3.23;;;3.50;99.90;;;;;;6276066;22;20169;-81
2023/03/28 06:54:35;;;;;;;10.07;3.60;;;3.60;99.90;;;;;;6275725;22;20242;-79
2023/03/28 06:57:02;;;;;;;12.53;3.03;;;3.60;99.90;;;;;;6275421;22;20173;-82
2023/03/28 06:59:29;;;;;;;9.80;2.80;;;3.70;99.90;;;;;;6273879;22;20188;-80
2023/03/28 07:01:56;;;;;;;9.67;2.60;;;3.70;99.90;;;;;;6275011;22;20251;-79
2023/03/28 07:04:23;;;;;;;6.10;3.00;;;3.80;99.90;;;;;;6275494;22;20211;-81
2023/03/28 07:06:50;;;;;;;6.27;2.33;;;3.80;99.90;;;;;;6275012;22;20241;-78
2023/03/28 07:09:16;;;;;;;10.23;2.70;;;3.90;99.90;;;;;;6274931;22;20194;-80
2023/03/28 07:11:45;;;;;;;3.90;1.90;;;4.00;99.90;;;;;;6275639;22;20243;-80
2023/03/28 07:14:12;;;;;;;8.70;1.90;;;4.00;99.90;;;;;;6275209;22;20203;-82
2023/03/28 07:16:39;;;;;;;6.83;2.47;;;4.10;99.90;;;;;;6275145;22;20164;-80
2023/03/28 07:19:06;;;;;;;11.47;3.07;;;4.20;99.90;;;;;;6275882;22;20169;-79
2023/03/28 07:21:33;;;;;;;10.00;3.03;;;4.30;99.90;;;;;;6275193;22;20180;-79
2023/03/28 07:24:00;;;;;;;7.93;3.90;;;4.40;99.90;;;;;;6276056;22;20173;-79
2023/03/28 07:26:27;;;;;;;7.50;2.20;;;4.50;99.90;;;;;;6275197;22;20634;-79
2023/03/28 07:28:56;;;;;;;23.27;4.00;;;4.60;99.90;;;;;;6275950;22;20187;-82
2023/03/28 07:31:23;;;;;;;15.17;4.03;;;4.70;99.90;;;;;;6276958;22;20191;-82
2023/03/28 07:33:50;;;;;;;10.83;2.87;;;4.90;99.90;;;;;;6276696;22;20284;-83
2023/03/28 07:36:19;;;;;;;19.97;3.77;;;5.00;99.90;;;;;;6276523;22;20248;-79
2023/03/28 07:38:47;;;;;;;5.20;2.63;;;5.20;99.90;;;;;;6277068;22;20421;-83
2023/03/28 07:41:14;;;;;;;4.03;1.87;;;5.40;99.90;;;;;;6276674;22;20171;-79
2023/03/28 07:43:41;;;;;;;5.47;2.10;;;5.50;99.90;;;;;;6276632;22;20554;-80
2023/03/28 07:46:12;;;;;;;5.23;1.73;;;5.70;99.90;;;;;;6278073;22;20255;-77
2023/03/28 07:48:40;;;;;;;6.13;2.17;;;5.80;99.90;;;;;;6277929;22;20535;-79
2023/03/28 07:51:08;;;;;;;10.07;2.17;;;6.00;99.90;;;;;;6276141;22;20223;-79
2023/03/28 07:53:36;;;;;;;4.40;2.00;;;6.10;99.90;;;;;;6277668;22;20172;-80
2023/03/28 07:56:03;;;;;;;5.80;2.20;;;6.10;99.90;;;;;;6277645;22;20175;-79
2023/03/28 07:58:30;;;;;;;3.07;1.67;;;6.20;99.90;;;;;;6276463;22;20506;-78
2023/03/28 08:01:04;;;;;;;7.47;2.17;;;6.30;99.90;;;;;;6277036;22;20161;-78
2023/03/28 08:03:32;;;;;;;4.67;1.83;;;6.50;99.90;;;;;;6277739;22;20189;-79
2023/03/28 08:06:01;;;;;;;6.60;2.07;;;6.60;99.90;;;;;;6277571;22;20652;-81
2023/03/28 08:08:29;;;;;;;6.53;2.23;;;6.70;1.00;;;;;;6277010;22;20179;-79
2023/03/28 08:10:56;;;;;;;9.70;2.77;;;6.80;1.00;;;;;;6273369;22;20287;-79
2023/03/28 08:13:23;;;;;;;5.97;1.87;;;6.90;1.00;;;;;;6277311;22;20645;-79
2023/03/28 08:15:50;;;;;;;4.80;2.03;;;6.90;1.00;;;;;;6277923;22;20219;-77
2023/03/28 08:18:19;;;;;;;4.30;1.77;;;6.90;1.00;;;;;;6276395;22;20172;-80
2023/03/28 08:20:48;;;;;;;6.17;1.80;;;6.90;1.00;;;;;;6277092;22;20591;-80
2023/03/28 08:23:15;;;;;;;5.60;2.10;;;6.80;1.00;;;;;;6277616;22;20256;-81
2023/03/28 08:25:43;;;;;;;6.57;2.23;;;6.80;99.90;;;;;;6275546;22;20644;-76
2023/03/28 08:28:10;;;;;;;3.83;1.50;;;6.80;99.90;;;;;;6276486;22;20661;-78
2023/03/28 08:30:37;;;;;;;2.53;1.67;;;6.80;1.00;;;;;;6275941;22;20199;-78
2023/03/28 08:33:04;;;;;;;8.73;3.07;;;6.80;99.90;;;;;;6275509;22;20251;-77
2023/03/28 08:35:31;;;;;;;5.37;2.07;;;6.80;99.90;;;;;;6276522;22;20219;-77
2023/03/28 08:38:00;;;;;;;3.13;1.67;;;6.90;99.90;;;;;;6274059;22;20839;-79
2023/03/28 08:40:28;;;;;;;2.23;1.40;;;7.00;99.90;;;;;;6273954;22;20653;-77
2023/03/28 08:43:09;;;;;;;5.87;1.70;;;7.10;99.90;;;;;;6275459;22;20522;-79
2023/03/28 08:45:45;;;;;;;4.97;2.30;;;7.30;1.00;;;;;;6274564;22;20596;-77
2023/03/28 08:48:19;;;;;;;3.93;1.53;;;7.40;1.00;;;;;;6276145;22;20275;-78
2023/03/28 08:50:50;;;;;;;6.27;2.10;;;7.60;1.00;;;;;;6275748;22;20181;-77
2023/03/28 08:53:25;;;;;;;4.27;1.70;;;7.70;1.00;;;;;;6275740;22;20161;-78
2023/03/28 08:55:53;;;;;;;7.50;1.80;;;7.90;99.90;;;;;;6276127;22;20389;-78
2023/03/28 08:58:22;;;;;;;6.53;1.90;;;8.10;1.00;;;;;;6276214;22;20330;-80
2023/03/28 09:00:50;;;;;;;4.73;1.50;;;8.30;99.90;;;;;;6275182;22;20730;-77
2023/03/28 09:03:20;;;;;;;5.47;2.03;;;8.50;99.90;;;;;;6275485;22;20339;-77
2023/03/28 09:05:49;;;;;;;6.77;2.40;;;8.60;1.00;;;;;;6275747;22;20168;-77
2023/03/28 09:08:41;;;;;;;6.70;1.90;;;8.70;99.90;;;;;;6275135;22;20422;-77
2023/03/28 09:11:21;;;;;;;6.03;2.17;;;8.80;1.00;;;;;;6274724;22;20680;-78
2023/03/28 09:13:55;;;;;;;4.30;1.73;;;8.80;1.00;;;;;;6275349;22;20168;-79
2023/03/28 09:16:43;;;;;;;3.20;1.60;;;8.80;1.00;;;;;;6273606;22;20160;-77
2023/03/28 09:19:26;;;;;;;8.60;2.03;;;8.80;99.90;;;;;;6274831;22;20192;-77
2023/03/28 09:22:03;;;;;;;5.60;2.37;;;8.80;1.00;;;;;;6274667;22;20274;-77
2023/03/28 09:24:46;;;;;;;6.03;1.63;;;8.90;99.90;;;;;;6275431;22;20228;-77
2023/03/28 09:27:19;;;;;;;6.33;1.70;;;9.00;1.00;;;;;;6275639;22;20171;-79
2023/03/28 09:29:47;;;;;;;5.47;2.07;;;9.10;99.90;;;;;;6274229;22;20240;-77
2023/03/28 09:32:22;;;;;;;6.90;2.37;;;9.10;45.30;;;;;;6275850;22;20276;-79
2023/03/28 09:34:51;;;;;;;4.30;1.77;;;9.20;99.90;;;;;;6275477;22;20278;-77
2023/03/28 09:37:31;;;;;;;4.53;1.83;;;9.20;99.90;;;;;;6275872;22;20432;-78
2023/03/28 09:40:06;;;;;;;5.57;2.00;;;9.30;1.00;;;;;;6275681;22;20188;-78
2023/03/28 09:42:41;;;;;;;5.80;2.20;;;9.30;1.00;;;;;;6275248;22;20566;-80
2023/03/28 09:45:22;;;;;;;5.93;2.87;;;9.30;1.00;;;;;;6276061;22;20240;-80
2023/03/28 09:47:49;;;;;;;23.93;4.47;;;9.40;1.00;;;;;;6275951;22;20425;-78
2023/03/28 09:50:18;;;;;;;12.97;2.70;;;9.40;99.90;;;;;;6275251;22;20551;-79
2023/03/28 09:52:48;;;;;;;6.10;2.57;;;9.40;99.90;;;;;;6275027;22;20189;-79
2023/03/28 09:55:19;;;;;;;4.37;2.10;;;9.40;1.00;;;;;;6275997;22;20199;-78
2023/03/28 09:58:07;;;;;;;16.80;4.00;;;9.50;1.00;;;;;;6275088;22;20239;-79
2023/03/28 10:00:36;;;;;;;6.27;2.13;;;9.60;1.00;;;;;;6273899;22;20608;-81
2023/03/28 10:03:04;;;;;;;12.93;3.20;;;9.60;1.00;;;;;;6247744;22;20195;-77
2023/03/28 10:05:34;;;;;;;26.87;4.13;;;9.60;1.00;;;;;;6274830;22;20179;-77
2023/03/28 10:08:05;;;;;;;8.77;2.50;;;9.60;99.90;;;;;;6274639;22;20246;-78
2023/03/28 10:10:33;;;;;;;18.77;3.43;;;9.50;1.00;;;;;;6274503;22;20589;-79
2023/03/28 10:13:03;;;;;;;9.17;2.60;;;9.50;1.00;;;;;;6275669;22;20226;-77
2023/03/28 10:15:39;;;;;;;6.50;2.10;;;9.40;1.00;;;;;;6275379;22;20597;-76
2023/03/28 10:18:06;;;;;;;5.93;2.97;;;9.50;1.00;;;;;;6273258;22;20159;-77
2023/03/28 10:20:36;;;;;;;5.40;2.77;;;9.50;1.00;;;;;;6274500;22;20275;-78
2023/03/28 10:23:04;;;;;;;7.27;2.60;;;9.50;1.00;;;;;;6275955;22;20195;-76
2023/03/28 10:25:37;;;;;;;6.97;2.47;;;9.40;1.00;;;;;;6274292;22;20255;-77
2023/03/28 10:28:06;;;;;;;8.53;3.03;;;9.40;1.00;;;;;;6275102;22;20175;-77
2023/03/28 10:30:34;;;;;;;17.80;4.07;;;9.20;1.00;;;;;;6274820;22;20236;-79
2023/03/28 10:33:10;;;;;;;23.87;4.40;;;9.20;1.00;;;;;;6274152;22;20173;-76
2023/03/28 10:35:40;;;;;;;6.43;2.73;;;9.10;1.00;;;;;;6274946;22;20241;-76
2023/03/28 10:38:15;;;;;;;4.50;2.50;;;9.10;1.00;;;;;;6274154;22;20173;-76
2023/03/28 10:40:50;;;;;;;4.93;2.40;;;9.10;1.00;;;;;;6274931;22;20445;-78
2023/03/28 10:43:17;;;;;;;4.27;2.63;;;9.20;1.00;;;;;;6275262;22;20160;-77
2023/03/28 10:45:49;;;;;;;8.73;2.97;;;9.30;1.00;;;;;;6274683;22;20255;-79
2023/03/28 10:48:20;;;;;;;4.23;2.73;;;9.30;1.00;;;;;;6275949;22;20164;-78
2023/03/28 10:50:49;;;;;;;6.33;2.60;;;9.40;1.00;;;;;;6275085;22;20251;-78
2023/03/28 10:53:43;;;;;;;10.37;3.37;;;9.40;99.90;;;;;;6274491;22;20428;-77
2023/03/28 10:56:24;;;;;;;7.20;3.07;;;9.50;99.90;;;;;;6275111;22;20210;-77
2023/03/28 10:59:02;;;;;;;8.40;3.50;;;9.60;99.90;;;;;;6275950;22;20164;-76
2023/03/28 11:01:35;;;;;;;8.00;3.13;;;9.80;99.90;;;;;;6274149;22;20156;-77
2023/03/28 11:04:13;;;;;;;7.90;2.90;;;9.90;99.90;;;;;;6273895;22;20192;-75
2023/03/28 11:06:47;;;;;;;5.80;2.97;;;10.10;1.00;;;;;;6274500;22;20244;-77
2023/03/28 11:09:22;;;;;;;6.30;3.13;;;10.30;1.00;;;;;;6275254;22;20176;-77
2023/03/28 11:12:01;;;;;;;6.97;3.03;;;10.50;99.90;;;;;;6274902;22;20195;-77
2023/03/28 11:14:36;;;;;;;8.20;2.97;;;10.60;99.90;;;;;;6275219;22;20247;-78
2023/03/28 11:17:11;;;;;;;53.50;8.50;;;10.70;99.90;;;;;;6276609;22;20255;-77
2023/03/28 11:19:54;;;;;;;6.97;2.87;;;10.60;99.90;;;;;;6275235;22;20231;-74
2023/03/28 11:22:27;;;;;;;7.37;3.13;;;10.60;99.90;;;;;;6274658;22;20711;-76
2023/03/28 11:25:03;;;;;;;7.20;3.33;;;10.50;99.90;;;;;;6275828;22;20244;-75
2023/03/28 11:27:37;;;;;;;16.13;3.47;;;10.30;97.00;;;;;;6274743;22;20538;-78
2023/03/28 11:30:10;;;;;;;24.40;3.90;;;10.20;25.40;;;;;;6275187;22;20199;-76
2023/03/28 11:32:42;;;;;;;8.20;2.77;;;10.20;48.50;;;;;;6275696;22;20236;-76
2023/03/28 11:35:17;;;;;;;7.30;3.27;;;10.30;1.00;;;;;;6274582;22;20594;-79
2023/03/28 11:37:51;;;;;;;9.67;2.97;;;10.20;1.00;;;;;;6274865;22;20168;-76
2023/03/28 11:40:23;;;;;;;6.27;2.67;;;10.00;1.00;;;;;;6275065;22;20165;-75
2023/03/28 11:42:56;;;;;;;17.83;3.20;;;9.90;1.00;;;;;;6273445;22;20192;-75
2023/03/28 11:45:27;;;;;;;6.20;2.20;;;9.90;1.00;;;;;;6274985;22;20161;-75
2023/03/28 11:48:04;;;;;;;5.23;2.13;;;9.90;1.00;;;;;;6305459;22;20168;-75
2023/03/28 11:50:40;;;;;;;72.20;10.20;;;9.70;1.00;;;;;;6304668;22;20222;-78
2023/03/28 11:53:11;;;;;;;8.70;2.80;;;9.70;1.00;;;;;;6306098;22;20198;-76
2023/03/28 11:55:44;;;;;;;4.17;2.03;;;9.60;99.90;;;;;;6276343;22;20247;-75
2023/03/28 11:58:18;;;;;;;12.20;2.83;;;9.50;99.90;;;;;;6275021;22;20237;-76
2023/03/28 12:00:52;;;;;;;9.47;2.07;;;9.50;99.90;;;;;;6275154;22;20168;-76
2023/03/28 12:03:23;;;;;;;10.37;2.13;;;9.40;99.90;;;;;;6273856;22;20192;-76
2023/03/28 12:05:54;;;;;;;24.13;5.43;;;9.40;99.90;;;;;;6274313;22;20161;-77
2023/03/28 12:08:28;;;;;;;19.30;3.90;;;9.30;1.00;;;;;;6274789;22;20173;-79
2023/03/28 12:10:59;;;;;;;6.60;2.00;;;9.30;1.00;;;;;;6271177;22;20181;-79
2023/03/28 12:13:34;;;;;;;6.73;2.00;;;9.40;1.00;;;;;;6274356;22;20165;-76
2023/03/28 12:16:05;;;;;;;28.23;4.03;;;9.50;1.00;;;;;;6276137;22;20244;-77
2023/03/28 12:18:40;;;;;;;36.67;5.57;;;9.60;99.90;;;;;;6275200;22;20216;-77
2023/03/28 12:21:12;;;;;;;8.30;1.90;;;9.60;1.00;;;;;;6275414;22;20247;-78
2023/03/28 12:23:52;;;;;;;3.77;1.80;;;9.70;99.90;;;;;;6274872;22;20188;-78
2023/03/28 12:26:27;;;;;;;57.63;7.23;;;9.90;99.90;;;;;;6275702;22;20200;-78
2023/03/28 12:29:00;;;;;;;25.57;3.03;;;9.80;99.90;;;;;;6275630;22;20235;-77
2023/03/28 12:31:31;;;;;;;19.27;3.37;;;9.90;99.90;;;;;;6274592;22;20283;-75
2023/03/28 12:34:06;;;;;;;16.80;3.10;;;10.00;99.90;;;;;;6275634;22;20236;-76
2023/03/28 12:36:40;;;;;;;4.93;1.97;;;10.10;99.90;;;;;;6275192;22;20176;-76
2023/03/28 12:39:23;;;;;;;4.83;2.23;;;10.20;99.90;;;;;;6274870;22;20188;-78
2023/03/28 12:41:52;;;;;;;8.47;2.83;;;10.40;87.90;;;;;;6275048;22;20183;-76
2023/03/28 12:44:24;;;;;;;13.50;3.10;;;10.40;99.90;;;;;;6275150;22;20310;-77
2023/03/28 12:46:55;;;;;;;4.20;2.47;;;10.50;99.90;;;;;;6274839;22;20260;-76
2023/03/28 12:49:31;;;;;;;9.43;2.80;;;10.40;99.90;;;;;;6276063;22;20251;-80
2023/03/28 12:52:01;;;;;;;9.57;3.67;;;10.40;99.90;;;;;;6275356;22;20212;-77
2023/03/28 12:54:32;;;;;;;87.67;16.63;;;10.20;70.80;;;;;;6275830;22;20185;-76
2023/03/28 12:57:04;;;;;;;7.63;4.40;;;10.10;99.90;;;;;;6276074;22;20173;-78
2023/03/28 12:59:52;;;;;;;10.23;4.30;;;10.20;99.90;;;;;;6275385;22;20164;-76
2023/03/28 13:02:28;;;;;;;10.37;4.60;;;10.20;99.90;;;;;;6258874;22;20197;-77
2023/03/28 13:05:03;;;;;;;14.47;5.33;;;10.20;99.90;;;;;;6271004;22;20490;-76
2023/03/28 13:07:45;;;;;;;9.33;5.20;;;10.20;99.90;;;;;;6272609;22;20168;-77
2023/03/28 13:10:20;;;;;;;13.43;4.77;;;10.00;99.90;;;;;;6274447;22;20215;-81
2023/03/28 13:13:00;;;;;;;12.97;5.23;;;10.00;99.90;;;;;;6275137;22;20190;-77
2023/03/28 13:15:31;;;;;;;6.00;3.40;;;10.00;31.40;;;;;;6274631;22;20636;-76